Key West, FL

7:10 AM EDT on August 30, 2015 (GMT -0400)
Big Coppitt Key Gulfside | | Change Station
CLOSE
Current Station
Personal Weather Station
Location: Key West, FL
Elevation: 31 ft
Nearby Weather Stations

Elev 31 ft 24.60 °N, 81.67 °W | Updated 12 minutes ago

Overcast
Overcast
82.2 °F
Feels Like 92 °F
N
9.4
Wind Variable Wind from ENE

Today
High -- | Low -- °F
--% Chance of Precip.
Yesterday
High -- | Low -- °F
Precip. -- in
7:06 AM 7:47 PM
Full, 99% visible
Pressure 29.88 in
Visibility 6.0 miles
Clouds Few 1700 ft
Mostly Cloudy 2500 ft
Mostly Cloudy 5500 ft
Overcast 14000 ft
Heat Index 92 °F
Dew Point 79 °F
Humidity 91%
Rainfall 0.00 in
Snow Depth Not available.
UV 0 out of 12
Pollen 5.40 out of 12
Air Quality Not available.
Flu Activity Not available.
SPECI KNQX 301106Z 15015KT 6SM -RA FEW017 BKN025TCU BKN055 OVC140 28/26 A2988 RMK AO2 RAB06 TCU OHD T2 SET P0000 T02830256 $
Pressure 29.88 in
Visibility 6.0 miles
Clouds Few 1700 ft
Mostly Cloudy 2500 ft
Mostly Cloudy 5500 ft
Overcast 14000 ft
Heat Index 92 °F
Dew Point 79 °F
Humidity 91%
Rainfall 0.00 in
Snow Depth Not available.
UV 0 out of 12
Pollen 5.40 out of 12
Air Quality Not available.
Flu Activity Not available.
SPECI KNQX 301106Z 15015KT 6SM -RA FEW017 BKN025TCU BKN055 OVC140 28/26 A2988 RMK AO2 RAB06 TCU OHD T2 SET P0000 T02830256 $
Nowcast | as of 6:59 am EDT on August 30, 2015

Through 800 am...clusters of showers and thunderstorms will continue to stream northwestward at 20 to 25 knots...over the Gulf waters offshore of Mainland Monroe...and the nearshore Gulf waters adjacent to the Middle Keys. Other showers and thunderstorms will track southwestward at 15 to 20 knots over the near and offshore Florida Straits south of the Marquesas Keys and Dry Tortugas. The stronger activity will produce wind gusts near 25 knots...blinding downpours...and cloud to surface lightning strikes. Shower activity will be limited over the island chain.

×

10-Day Weather Forecast

×

Almanac

Astronomy

Aug. 30, 2015 Rise Set
Actual Time
Civil Twilight
Nautical Twilight
Astronomical Twilight
Moon
Length of Visible Light
Length of Day
Tomorrow will be .
, % of the Moon is Illuminated

Today's Extremes

State Highs State Lows

Community

WunderPhotos

Upload Photos

1,850,925 photos uploaded!

WunderBlogs® & News

Nearby

Air Quality

  Air Quality AQ Index Pollutant
Not available.

Snow Depth

Station Depth Elevation

Earthquake Activity

City Distance Mag. Time & Date
Minimum magnitude displayed is 2.5.

Coastal Water Temperatures

Place Temperature

Stations

Nearby Weather Stations

Station Location Temp. Windchill Dew Point Humidity Wind Precip. Elev Updated Type